Archbald, Pennsylvania
Current Conditions -  °F | °C
As of 7:54 PM on Monday 20 Oct 2014 (Local Time) from KAVP Reporting Station
Overcast Overcast  
Wind Chill: 55°   Ceiling: 11000
Heat Index: 55°   Visibility: 10mi
Dew Point: 39°   Wind: 7mph
Humidity: 55%   Direction: 180°S
Pressure: 29.91"   Gusts: NA
Location:  41.51°N, 75.56°W
Report Text: KAVP 202354Z AUTO 18006KT 10SM OVC110 13/04 A2991 RMK AO2 SLP132 T01280039 10150 20111 58004
Loading
Personal Weather Stations






























Interactive Weather Map
Tropical Storm Tracking
New forecast layout! Learn more

10-Day Weather Forecast

Advertisements
Track Severe Weather on mobile